sensor_id;sensor_type;location;lat;lon;timestamp;temperature;humidity
24446;DHT22;13347;50.984;5.822;2024-02-04T00:02:19;10.10;99.90
24446;DHT22;13347;50.984;5.822;2024-02-04T00:04:48;10.10;99.90
24446;DHT22;13347;50.984;5.822;2024-02-04T00:07:15;10.10;99.90
24446;DHT22;13347;50.984;5.822;2024-02-04T00:09:44;10.10;99.90
24446;DHT22;13347;50.984;5.822;2024-02-04T00:12:10;10.10;99.90
24446;DHT22;13347;50.984;5.822;2024-02-04T00:14:36;10.10;99.90
24446;DHT22;13347;50.984;5.822;2024-02-04T00:17:03;10.10;99.90
24446;DHT22;13347;50.984;5.822;2024-02-04T00:19:30;10.10;99.90
24446;DHT22;13347;50.984;5.822;2024-02-04T00:21:57;10.10;99.90
24446;DHT22;13347;50.984;5.822;2024-02-04T00:24:24;10.10;99.90
24446;DHT22;13347;50.984;5.822;2024-02-04T00:26:53;10.10;99.90
24446;DHT22;13347;50.984;5.822;2024-02-04T00:29:20;10.10;99.90
24446;DHT22;13347;50.984;5.822;2024-02-04T00:31:47;10.10;99.90
24446;DHT22;13347;50.984;5.822;2024-02-04T00:34:14;10.10;99.90
24446;DHT22;13347;50.984;5.822;2024-02-04T00:36:41;10.10;99.90
24446;DHT22;13347;50.984;5.822;2024-02-04T00:39:08;10.10;99.90
24446;DHT22;13347;50.984;5.822;2024-02-04T00:41:35;10.10;99.90
24446;DHT22;13347;50.984;5.822;2024-02-04T00:44:04;10.20;99.90
24446;DHT22;13347;50.984;5.822;2024-02-04T00:46:31;10.10;99.90
24446;DHT22;13347;50.984;5.822;2024-02-04T00:48:58;10.20;99.90
24446;DHT22;13347;50.984;5.822;2024-02-04T00:51:25;10.20;99.90
24446;DHT22;13347;50.984;5.822;2024-02-04T00:53:52;10.20;99.90
24446;DHT22;13347;50.984;5.822;2024-02-04T00:56:19;10.20;99.90
24446;DHT22;13347;50.984;5.822;2024-02-04T00:58:46;10.20;99.90
24446;DHT22;13347;50.984;5.822;2024-02-04T01:01:14;10.10;99.90
24446;DHT22;13347;50.984;5.822;2024-02-04T01:03:41;10.20;99.90
24446;DHT22;13347;50.984;5.822;2024-02-04T01:06:08;10.20;99.90
24446;DHT22;13347;50.984;5.822;2024-02-04T01:08:35;10.20;99.90
24446;DHT22;13347;50.984;5.822;2024-02-04T01:11:03;10.20;99.90
24446;DHT22;13347;50.984;5.822;2024-02-04T01:13:30;10.20;99.90
24446;DHT22;13347;50.984;5.822;2024-02-04T01:15:57;10.20;99.90
24446;DHT22;13347;50.984;5.822;2024-02-04T01:18:26;10.20;99.90
24446;DHT22;13347;50.984;5.822;2024-02-04T01:20:53;10.20;99.90
24446;DHT22;13347;50.984;5.822;2024-02-04T01:23:20;10.20;99.90
24446;DHT22;13347;50.984;5.822;2024-02-04T01:25:47;10.20;99.90
24446;DHT22;13347;50.984;5.822;2024-02-04T01:28:14;10.20;99.90
24446;DHT22;13347;50.984;5.822;2024-02-04T01:30:41;10.20;99.90
24446;DHT22;13347;50.984;5.822;2024-02-04T01:33:08;10.30;99.90
24446;DHT22;13347;50.984;5.822;2024-02-04T01:35:36;10.30;99.90
24446;DHT22;13347;50.984;5.822;2024-02-04T01:38:03;10.30;99.90
24446;DHT22;13347;50.984;5.822;2024-02-04T01:40:30;10.30;99.90
24446;DHT22;13347;50.984;5.822;2024-02-04T01:42:57;10.30;99.90
24446;DHT22;13347;50.984;5.822;2024-02-04T01:45:24;10.30;99.90
24446;DHT22;13347;50.984;5.822;2024-02-04T01:47:51;10.30;99.90
24446;DHT22;13347;50.984;5.822;2024-02-04T01:50:18;10.30;99.90
24446;DHT22;13347;50.984;5.822;2024-02-04T01:52:47;10.40;99.90
24446;DHT22;13347;50.984;5.822;2024-02-04T01:55:14;10.30;99.90
24446;DHT22;13347;50.984;5.822;2024-02-04T01:57:41;10.30;99.90
24446;DHT22;13347;50.984;5.822;2024-02-04T02:00:09;10.40;99.90
24446;DHT22;13347;50.984;5.822;2024-02-04T02:02:38;10.30;99.90
24446;DHT22;13347;50.984;5.822;2024-02-04T02:05:05;10.30;99.90
24446;DHT22;13347;50.984;5.822;2024-02-04T02:07:33;10.30;99.90
24446;DHT22;13347;50.984;5.822;2024-02-04T02:10:01;10.30;99.90
24446;DHT22;13347;50.984;5.822;2024-02-04T02:12:33;10.40;99.90
24446;DHT22;13347;50.984;5.822;2024-02-04T02:15:03;10.40;99.90
24446;DHT22;13347;50.984;5.822;2024-02-04T02:17:35;10.40;99.90
24446;DHT22;13347;50.984;5.822;2024-02-04T02:20:07;10.40;99.90
24446;DHT22;13347;50.984;5.822;2024-02-04T02:22:38;10.40;99.90
24446;DHT22;13347;50.984;5.822;2024-02-04T02:25:09;10.40;99.90
24446;DHT22;13347;50.984;5.822;2024-02-04T02:27:45;10.40;99.90
24446;DHT22;13347;50.984;5.822;2024-02-04T02:30:12;10.50;99.90
24446;DHT22;13347;50.984;5.822;2024-02-04T02:32:39;10.40;99.90
24446;DHT22;13347;50.984;5.822;2024-02-04T02:35:06;10.50;99.90
24446;DHT22;13347;50.984;5.822;2024-02-04T02:37:35;10.50;99.90
24446;DHT22;13347;50.984;5.822;2024-02-04T02:40:05;10.50;99.90
24446;DHT22;13347;50.984;5.822;2024-02-04T02:42:34;10.50;99.90
24446;DHT22;13347;50.984;5.822;2024-02-04T02:45:01;10.50;99.90
24446;DHT22;13347;50.984;5.822;2024-02-04T02:47:28;10.50;99.90
24446;DHT22;13347;50.984;5.822;2024-02-04T02:49:56;10.50;99.90
24446;DHT22;13347;50.984;5.822;2024-02-04T02:52:23;10.50;99.90
24446;DHT22;13347;50.984;5.822;2024-02-04T02:54:49;10.50;99.90
24446;DHT22;13347;50.984;5.822;2024-02-04T02:57:16;10.50;99.90
24446;DHT22;13347;50.984;5.822;2024-02-04T02:59:45;10.50;99.90
24446;DHT22;13347;50.984;5.822;2024-02-04T03:02:12;10.50;99.90
24446;DHT22;13347;50.984;5.822;2024-02-04T03:04:39;10.50;99.90
24446;DHT22;13347;50.984;5.822;2024-02-04T03:07:06;10.50;99.90
24446;DHT22;13347;50.984;5.822;2024-02-04T03:09:33;10.50;99.90
24446;DHT22;13347;50.984;5.822;2024-02-04T03:12:00;10.50;99.90
24446;DHT22;13347;50.984;5.822;2024-02-04T03:14:27;10.50;99.90
24446;DHT22;13347;50.984;5.822;2024-02-04T03:16:55;10.50;99.90
24446;DHT22;13347;50.984;5.822;2024-02-04T03:19:22;10.50;99.90
24446;DHT22;13347;50.984;5.822;2024-02-04T03:21:49;10.50;99.90
24446;DHT22;13347;50.984;5.822;2024-02-04T03:24:16;10.50;99.90
24446;DHT22;13347;50.984;5.822;2024-02-04T03:26:43;10.50;99.90
24446;DHT22;13347;50.984;5.822;2024-02-04T03:29:10;10.50;99.90
24446;DHT22;13347;50.984;5.822;2024-02-04T03:31:37;10.50;99.90
24446;DHT22;13347;50.984;5.822;2024-02-04T03:34:06;10.60;99.90
24446;DHT22;13347;50.984;5.822;2024-02-04T03:36:33;10.60;99.90
24446;DHT22;13347;50.984;5.822;2024-02-04T03:39:00;10.60;99.90
24446;DHT22;13347;50.984;5.822;2024-02-04T03:41:26;10.60;99.90
24446;DHT22;13347;50.984;5.822;2024-02-04T03:43:53;10.70;99.90
24446;DHT22;13347;50.984;5.822;2024-02-04T03:46:20;10.70;99.90
24446;DHT22;13347;50.984;5.822;2024-02-04T03:48:48;10.70;99.90
24446;DHT22;13347;50.984;5.822;2024-02-04T03:51:16;10.60;99.90
24446;DHT22;13347;50.984;5.822;2024-02-04T03:53:43;10.70;99.90
24446;DHT22;13347;50.984;5.822;2024-02-04T03:56:11;10.70;99.90
24446;DHT22;13347;50.984;5.822;2024-02-04T03:58:37;10.70;99.90
24446;DHT22;13347;50.984;5.822;2024-02-04T04:01:04;10.70;99.90
24446;DHT22;13347;50.984;5.822;2024-02-04T04:03:31;10.70;99.90
24446;DHT22;13347;50.984;5.822;2024-02-04T04:05:58;10.70;99.90
24446;DHT22;13347;50.984;5.822;2024-02-04T04:08:27;10.60;99.90
24446;DHT22;13347;50.984;5.822;2024-02-04T04:10:54;10.70;99.90
24446;DHT22;13347;50.984;5.822;2024-02-04T04:13:21;10.60;99.90
24446;DHT22;13347;50.984;5.822;2024-02-04T04:15:48;10.60;99.90
24446;DHT22;13347;50.984;5.822;2024-02-04T04:18:18;10.60;99.90
24446;DHT22;13347;50.984;5.822;2024-02-04T04:20:44;10.60;99.90
24446;DHT22;13347;50.984;5.822;2024-02-04T04:23:12;10.60;99.90
24446;DHT22;13347;50.984;5.822;2024-02-04T04:25:40;10.60;99.90
24446;DHT22;13347;50.984;5.822;2024-02-04T04:28:07;10.50;99.90
24446;DHT22;13347;50.984;5.822;2024-02-04T04:30:34;10.50;99.90
24446;DHT22;13347;50.984;5.822;2024-02-04T04:33:01;10.50;99.90
24446;DHT22;13347;50.984;5.822;2024-02-04T04:35:28;10.50;99.90
24446;DHT22;13347;50.984;5.822;2024-02-04T04:37:55;10.60;99.90
24446;DHT22;13347;50.984;5.822;2024-02-04T04:40:22;10.50;99.90
24446;DHT22;13347;50.984;5.822;2024-02-04T04:42:50;10.60;99.90
24446;DHT22;13347;50.984;5.822;2024-02-04T04:45:17;10.60;99.90
24446;DHT22;13347;50.984;5.822;2024-02-04T04:47:44;10.50;99.90
24446;DHT22;13347;50.984;5.822;2024-02-04T04:50:11;10.50;99.90
24446;DHT22;13347;50.984;5.822;2024-02-04T04:52:38;10.50;99.90
24446;DHT22;13347;50.984;5.822;2024-02-04T04:55:05;10.60;99.90
24446;DHT22;13347;50.984;5.822;2024-02-04T04:57:32;10.60;99.90
24446;DHT22;13347;50.984;5.822;2024-02-04T05:00:01;10.60;99.90
24446;DHT22;13347;50.984;5.822;2024-02-04T05:02:32;10.60;99.90
24446;DHT22;13347;50.984;5.822;2024-02-04T05:04:59;10.50;99.90
24446;DHT22;13347;50.984;5.822;2024-02-04T05:07:26;10.50;99.90
24446;DHT22;13347;50.984;5.822;2024-02-04T05:09:53;10.40;99.90
24446;DHT22;13347;50.984;5.822;2024-02-04T05:12:20;10.50;99.90
24446;DHT22;13347;50.984;5.822;2024-02-04T05:14:47;10.50;99.90
24446;DHT22;13347;50.984;5.822;2024-02-04T05:17:15;10.50;99.90
24446;DHT22;13347;50.984;5.822;2024-02-04T05:19:42;10.50;99.90
24446;DHT22;13347;50.984;5.822;2024-02-04T05:22:09;10.50;99.90
24446;DHT22;13347;50.984;5.822;2024-02-04T05:24:36;10.50;99.90
24446;DHT22;13347;50.984;5.822;2024-02-04T05:27:03;10.40;99.90
24446;DHT22;13347;50.984;5.822;2024-02-04T05:29:31;10.50;99.90
24446;DHT22;13347;50.984;5.822;2024-02-04T05:31:58;10.50;99.90
24446;DHT22;13347;50.984;5.822;2024-02-04T05:34:26;10.50;99.90
24446;DHT22;13347;50.984;5.822;2024-02-04T05:36:55;10.50;99.90
24446;DHT22;13347;50.984;5.822;2024-02-04T05:39:22;10.50;99.90
24446;DHT22;13347;50.984;5.822;2024-02-04T05:41:50;10.50;99.90
24446;DHT22;13347;50.984;5.822;2024-02-04T05:44:17;10.40;99.90
24446;DHT22;13347;50.984;5.822;2024-02-04T05:46:44;10.40;99.90
24446;DHT22;13347;50.984;5.822;2024-02-04T05:49:11;10.50;99.90
24446;DHT22;13347;50.984;5.822;2024-02-04T05:51:40;10.40;99.90
24446;DHT22;13347;50.984;5.822;2024-02-04T05:54:07;10.50;99.90
24446;DHT22;13347;50.984;5.822;2024-02-04T05:56:34;10.40;99.90
24446;DHT22;13347;50.984;5.822;2024-02-04T05:59:01;10.40;99.90
24446;DHT22;13347;50.984;5.822;2024-02-04T06:01:29;10.40;99.90
24446;DHT22;13347;50.984;5.822;2024-02-04T06:03:56;10.40;99.90
24446;DHT22;13347;50.984;5.822;2024-02-04T06:06:23;10.40;99.90
24446;DHT22;13347;50.984;5.822;2024-02-04T06:08:51;10.50;99.90
24446;DHT22;13347;50.984;5.822;2024-02-04T06:11:18;10.50;99.90
24446;DHT22;13347;50.984;5.822;2024-02-04T06:13:45;10.50;99.90
24446;DHT22;13347;50.984;5.822;2024-02-04T06:16:12;10.50;99.90
24446;DHT22;13347;50.984;5.822;2024-02-04T06:18:39;10.50;99.90
24446;DHT22;13347;50.984;5.822;2024-02-04T06:21:06;10.50;99.90
24446;DHT22;13347;50.984;5.822;2024-02-04T06:23:33;10.50;99.90
24446;DHT22;13347;50.984;5.822;2024-02-04T06:26:02;10.50;99.90
24446;DHT22;13347;50.984;5.822;2024-02-04T06:28:29;10.40;99.90
24446;DHT22;13347;50.984;5.822;2024-02-04T06:30:56;10.50;99.90
24446;DHT22;13347;50.984;5.822;2024-02-04T06:33:23;10.50;99.90
24446;DHT22;13347;50.984;5.822;2024-02-04T06:35:50;10.40;99.90
24446;DHT22;13347;50.984;5.822;2024-02-04T06:38:17;10.40;99.90
24446;DHT22;13347;50.984;5.822;2024-02-04T06:40:44;10.40;99.90
24446;DHT22;13347;50.984;5.822;2024-02-04T06:43:13;10.40;99.90
24446;DHT22;13347;50.984;5.822;2024-02-04T06:45:40;10.40;99.90
24446;DHT22;13347;50.984;5.822;2024-02-04T06:48:07;10.40;99.90
24446;DHT22;13347;50.984;5.822;2024-02-04T06:50:35;10.40;99.90
24446;DHT22;13347;50.984;5.822;2024-02-04T06:53:02;10.40;99.90
24446;DHT22;13347;50.984;5.822;2024-02-04T06:55:30;10.40;99.90
24446;DHT22;13347;50.984;5.822;2024-02-04T06:57:56;10.40;99.90
24446;DHT22;13347;50.984;5.822;2024-02-04T07:00:25;10.40;99.90
24446;DHT22;13347;50.984;5.822;2024-02-04T07:02:52;10.30;99.90
24446;DHT22;13347;50.984;5.822;2024-02-04T07:05:19;10.30;99.90
24446;DHT22;13347;50.984;5.822;2024-02-04T07:07:47;10.40;99.90
24446;DHT22;13347;50.984;5.822;2024-02-04T07:10:14;10.30;99.90
24446;DHT22;13347;50.984;5.822;2024-02-04T07:12:41;10.30;99.90
24446;DHT22;13347;50.984;5.822;2024-02-04T07:15:08;10.30;99.90
24446;DHT22;13347;50.984;5.822;2024-02-04T07:17:37;10.30;99.90
24446;DHT22;13347;50.984;5.822;2024-02-04T07:20:05;10.30;99.90
24446;DHT22;13347;50.984;5.822;2024-02-04T07:22:32;10.40;99.90
24446;DHT22;13347;50.984;5.822;2024-02-04T07:25:00;10.30;99.90
24446;DHT22;13347;50.984;5.822;2024-02-04T07:27:27;10.40;99.90
24446;DHT22;13347;50.984;5.822;2024-02-04T07:29:54;10.40;99.90
24446;DHT22;13347;50.984;5.822;2024-02-04T07:32:23;10.40;99.90
24446;DHT22;13347;50.984;5.822;2024-02-04T07:34:51;10.40;99.90
24446;DHT22;13347;50.984;5.822;2024-02-04T07:37:18;10.40;99.90
24446;DHT22;13347;50.984;5.822;2024-02-04T07:39:45;10.40;99.90
24446;DHT22;13347;50.984;5.822;2024-02-04T07:42:12;10.50;99.90
24446;DHT22;13347;50.984;5.822;2024-02-04T07:44:39;10.50;99.90
24446;DHT22;13347;50.984;5.822;2024-02-04T07:47:06;10.50;99.90
24446;DHT22;13347;50.984;5.822;2024-02-04T07:49:33;10.40;99.90
24446;DHT22;13347;50.984;5.822;2024-02-04T07:52:02;10.40;99.90
24446;DHT22;13347;50.984;5.822;2024-02-04T07:54:29;10.50;99.90
24446;DHT22;13347;50.984;5.822;2024-02-04T07:56:56;10.40;99.90
24446;DHT22;13347;50.984;5.822;2024-02-04T07:59:24;10.40;99.90
24446;DHT22;13347;50.984;5.822;2024-02-04T08:01:51;10.40;99.90
24446;DHT22;13347;50.984;5.822;2024-02-04T08:04:18;10.50;99.90
24446;DHT22;13347;50.984;5.822;2024-02-04T08:06:44;10.50;99.90
24446;DHT22;13347;50.984;5.822;2024-02-04T08:09:13;10.50;99.90
24446;DHT22;13347;50.984;5.822;2024-02-04T08:11:40;10.50;99.90
24446;DHT22;13347;50.984;5.822;2024-02-04T08:14:07;10.50;99.90
24446;DHT22;13347;50.984;5.822;2024-02-04T08:16:34;10.50;99.90
24446;DHT22;13347;50.984;5.822;2024-02-04T08:19:01;10.50;99.90
24446;DHT22;13347;50.984;5.822;2024-02-04T08:21:28;10.50;99.90
24446;DHT22;13347;50.984;5.822;2024-02-04T08:23:57;10.50;99.90
24446;DHT22;13347;50.984;5.822;2024-02-04T08:26:25;10.50;99.90
24446;DHT22;13347;50.984;5.822;2024-02-04T08:28:52;10.50;99.90
24446;DHT22;13347;50.984;5.822;2024-02-04T08:31:19;10.50;99.90
24446;DHT22;13347;50.984;5.822;2024-02-04T08:33:46;10.50;99.90
24446;DHT22;13347;50.984;5.822;2024-02-04T08:36:13;10.50;99.90
24446;DHT22;13347;50.984;5.822;2024-02-04T08:38:41;10.60;99.90
24446;DHT22;13347;50.984;5.822;2024-02-04T08:41:08;10.50;99.90
24446;DHT22;13347;50.984;5.822;2024-02-04T08:43:36;10.60;99.90
24446;DHT22;13347;50.984;5.822;2024-02-04T08:46:04;10.60;99.90
24446;DHT22;13347;50.984;5.822;2024-02-04T08:48:31;10.60;99.90
24446;DHT22;13347;50.984;5.822;2024-02-04T08:50:58;10.60;99.90
24446;DHT22;13347;50.984;5.822;2024-02-04T08:53:25;10.60;99.90
24446;DHT22;13347;50.984;5.822;2024-02-04T08:55:52;10.60;99.90
24446;DHT22;13347;50.984;5.822;2024-02-04T08:58:19;10.60;99.90
24446;DHT22;13347;50.984;5.822;2024-02-04T09:00:47;10.60;99.90
24446;DHT22;13347;50.984;5.822;2024-02-04T09:03:14;10.60;99.90
24446;DHT22;13347;50.984;5.822;2024-02-04T09:05:41;10.70;99.90
24446;DHT22;13347;50.984;5.822;2024-02-04T09:08:08;10.60;99.90
24446;DHT22;13347;50.984;5.822;2024-02-04T09:10:36;10.60;99.90
24446;DHT22;13347;50.984;5.822;2024-02-04T09:13:03;10.60;99.90
24446;DHT22;13347;50.984;5.822;2024-02-04T09:15:30;10.60;99.90
24446;DHT22;13347;50.984;5.822;2024-02-04T09:17:58;10.70;99.90
24446;DHT22;13347;50.984;5.822;2024-02-04T09:20:25;10.70;99.90
24446;DHT22;13347;50.984;5.822;2024-02-04T09:22:52;10.70;99.90
24446;DHT22;13347;50.984;5.822;2024-02-04T09:25:19;10.70;99.90
24446;DHT22;13347;50.984;5.822;2024-02-04T09:27:46;10.80;99.90
24446;DHT22;13347;50.984;5.822;2024-02-04T09:30:13;10.80;99.90
24446;DHT22;13347;50.984;5.822;2024-02-04T09:32:40;10.90;99.90
24446;DHT22;13347;50.984;5.822;2024-02-04T09:35:08;11.00;99.90
24446;DHT22;13347;50.984;5.822;2024-02-04T09:37:35;11.00;99.90
24446;DHT22;13347;50.984;5.822;2024-02-04T09:40:03;11.00;99.90
24446;DHT22;13347;50.984;5.822;2024-02-04T09:42:30;10.90;99.90
24446;DHT22;13347;50.984;5.822;2024-02-04T09:44:58;11.00;99.90
24446;DHT22;13347;50.984;5.822;2024-02-04T09:47:25;11.00;99.90
24446;DHT22;13347;50.984;5.822;2024-02-04T09:49:52;11.00;99.90
24446;DHT22;13347;50.984;5.822;2024-02-04T09:52:24;11.00;99.90
24446;DHT22;13347;50.984;5.822;2024-02-04T09:54:54;11.00;99.90
24446;DHT22;13347;50.984;5.822;2024-02-04T09:57:22;11.00;99.90
24446;DHT22;13347;50.984;5.822;2024-02-04T09:59:49;11.00;99.90
24446;DHT22;13347;50.984;5.822;2024-02-04T10:02:16;11.00;99.90
24446;DHT22;13347;50.984;5.822;2024-02-04T10:04:43;11.10;99.90
24446;DHT22;13347;50.984;5.822;2024-02-04T10:07:10;11.10;99.90
24446;DHT22;13347;50.984;5.822;2024-02-04T10:09:41;11.20;99.90
24446;DHT22;13347;50.984;5.822;2024-02-04T10:12:08;11.20;99.90
24446;DHT22;13347;50.984;5.822;2024-02-04T10:14:35;11.20;99.90
24446;DHT22;13347;50.984;5.822;2024-02-04T10:17:02;11.20;99.90
24446;DHT22;13347;50.984;5.822;2024-02-04T10:19:30;11.10;99.90
24446;DHT22;13347;50.984;5.822;2024-02-04T10:22:00;11.00;99.90
24446;DHT22;13347;50.984;5.822;2024-02-04T10:24:27;11.00;99.90
24446;DHT22;13347;50.984;5.822;2024-02-04T10:26:55;10.90;99.90
24446;DHT22;13347;50.984;5.822;2024-02-04T10:29:23;10.90;99.90
24446;DHT22;13347;50.984;5.822;2024-02-04T10:31:52;10.90;99.90
24446;DHT22;13347;50.984;5.822;2024-02-04T10:34:19;10.90;99.90
24446;DHT22;13347;50.984;5.822;2024-02-04T10:36:46;11.00;99.90
24446;DHT22;13347;50.984;5.822;2024-02-04T10:39:13;11.00;99.90
24446;DHT22;13347;50.984;5.822;2024-02-04T10:41:41;11.00;99.90
24446;DHT22;13347;50.984;5.822;2024-02-04T10:44:12;11.00;99.90
24446;DHT22;13347;50.984;5.822;2024-02-04T10:46:40;11.00;99.90
24446;DHT22;13347;50.984;5.822;2024-02-04T10:49:07;11.00;99.90
24446;DHT22;13347;50.984;5.822;2024-02-04T10:51:38;11.00;99.90
24446;DHT22;13347;50.984;5.822;2024-02-04T10:54:05;11.00;99.90
24446;DHT22;13347;50.984;5.822;2024-02-04T10:56:34;11.00;99.90
24446;DHT22;13347;50.984;5.822;2024-02-04T10:59:03;11.00;99.90
24446;DHT22;13347;50.984;5.822;2024-02-04T11:01:31;11.00;99.90
24446;DHT22;13347;50.984;5.822;2024-02-04T11:03:58;11.00;99.90
24446;DHT22;13347;50.984;5.822;2024-02-04T11:06:26;11.00;99.90
24446;DHT22;13347;50.984;5.822;2024-02-04T11:08:53;11.10;99.90
24446;DHT22;13347;50.984;5.822;2024-02-04T11:11:23;11.10;99.90
24446;DHT22;13347;50.984;5.822;2024-02-04T11:13:53;11.20;99.90
24446;DHT22;13347;50.984;5.822;2024-02-04T11:16:21;11.10;99.90
24446;DHT22;13347;50.984;5.822;2024-02-04T11:18:58;11.10;99.90
24446;DHT22;13347;50.984;5.822;2024-02-04T11:21:33;11.00;99.90
24446;DHT22;13347;50.984;5.822;2024-02-04T11:24:06;11.00;99.90
24446;DHT22;13347;50.984;5.822;2024-02-04T11:26:35;10.90;99.90
24446;DHT22;13347;50.984;5.822;2024-02-04T11:29:06;10.90;99.90
24446;DHT22;13347;50.984;5.822;2024-02-04T11:31:33;10.90;99.90
24446;DHT22;13347;50.984;5.822;2024-02-04T11:34:05;10.90;99.90
24446;DHT22;13347;50.984;5.822;2024-02-04T11:36:37;10.80;99.90
24446;DHT22;13347;50.984;5.822;2024-02-04T11:39:10;10.80;99.90
24446;DHT22;13347;50.984;5.822;2024-02-04T11:41:44;10.80;99.90
24446;DHT22;13347;50.984;5.822;2024-02-04T11:44:11;10.80;99.90
24446;DHT22;13347;50.984;5.822;2024-02-04T11:46:38;10.70;99.90
24446;DHT22;13347;50.984;5.822;2024-02-04T11:49:15;10.80;99.90
24446;DHT22;13347;50.984;5.822;2024-02-04T11:51:44;10.80;99.90
24446;DHT22;13347;50.984;5.822;2024-02-04T11:54:11;10.80;99.90
24446;DHT22;13347;50.984;5.822;2024-02-04T11:56:41;10.80;99.90
24446;DHT22;13347;50.984;5.822;2024-02-04T11:59:08;10.80;99.90
24446;DHT22;13347;50.984;5.822;2024-02-04T12:01:35;10.80;99.90
24446;DHT22;13347;50.984;5.822;2024-02-04T12:04:09;10.90;99.90
24446;DHT22;13347;50.984;5.822;2024-02-04T12:06:38;10.90;99.90
24446;DHT22;13347;50.984;5.822;2024-02-04T12:09:05;10.90;99.90
24446;DHT22;13347;50.984;5.822;2024-02-04T12:11:35;11.00;99.90
24446;DHT22;13347;50.984;5.822;2024-02-04T12:14:03;11.00;99.90
24446;DHT22;13347;50.984;5.822;2024-02-04T12:16:31;11.00;99.90
24446;DHT22;13347;50.984;5.822;2024-02-04T12:18:59;11.00;99.90
24446;DHT22;13347;50.984;5.822;2024-02-04T12:21:26;11.00;99.90
24446;DHT22;13347;50.984;5.822;2024-02-04T12:23:55;11.00;99.90
24446;DHT22;13347;50.984;5.822;2024-02-04T12:26:22;11.10;99.90
24446;DHT22;13347;50.984;5.822;2024-02-04T12:28:50;11.10;99.90
24446;DHT22;13347;50.984;5.822;2024-02-04T12:31:17;11.10;99.90
24446;DHT22;13347;50.984;5.822;2024-02-04T12:33:51;11.10;99.90
24446;DHT22;13347;50.984;5.822;2024-02-04T12:36:18;11.10;99.90
24446;DHT22;13347;50.984;5.822;2024-02-04T12:38:49;11.00;99.90
24446;DHT22;13347;50.984;5.822;2024-02-04T12:41:18;11.00;99.90
24446;DHT22;13347;50.984;5.822;2024-02-04T12:43:48;11.00;99.90
24446;DHT22;13347;50.984;5.822;2024-02-04T12:46:15;11.00;99.90
24446;DHT22;13347;50.984;5.822;2024-02-04T12:48:42;11.00;99.90
24446;DHT22;13347;50.984;5.822;2024-02-04T12:51:09;11.00;99.90
24446;DHT22;13347;50.984;5.822;2024-02-04T12:53:37;11.00;99.90
24446;DHT22;13347;50.984;5.822;2024-02-04T12:56:05;11.10;99.90
24446;DHT22;13347;50.984;5.822;2024-02-04T12:58:41;11.10;99.90
24446;DHT22;13347;50.984;5.822;2024-02-04T13:01:08;11.20;99.90
24446;DHT22;13347;50.984;5.822;2024-02-04T13:03:35;11.20;99.90
24446;DHT22;13347;50.984;5.822;2024-02-04T13:06:02;11.20;99.90
24446;DHT22;13347;50.984;5.822;2024-02-04T13:08:29;11.10;99.90
24446;DHT22;13347;50.984;5.822;2024-02-04T13:10:57;11.10;99.90
24446;DHT22;13347;50.984;5.822;2024-02-04T13:13:24;11.10;99.90
24446;DHT22;13347;50.984;5.822;2024-02-04T13:15:55;11.10;99.90
24446;DHT22;13347;50.984;5.822;2024-02-04T13:18:22;11.20;99.90
24446;DHT22;13347;50.984;5.822;2024-02-04T13:20:49;11.20;99.90
24446;DHT22;13347;50.984;5.822;2024-02-04T13:23:16;11.10;99.90
24446;DHT22;13347;50.984;5.822;2024-02-04T13:25:43;11.10;99.90
24446;DHT22;13347;50.984;5.822;2024-02-04T13:28:11;11.20;99.90
24446;DHT22;13347;50.984;5.822;2024-02-04T13:30:38;11.20;99.90
24446;DHT22;13347;50.984;5.822;2024-02-04T13:33:06;11.20;99.90
24446;DHT22;13347;50.984;5.822;2024-02-04T13:35:34;11.10;99.90
24446;DHT22;13347;50.984;5.822;2024-02-04T13:38:01;11.10;99.90
24446;DHT22;13347;50.984;5.822;2024-02-04T13:40:29;11.20;99.90
24446;DHT22;13347;50.984;5.822;2024-02-04T13:42:56;11.20;99.90
24446;DHT22;13347;50.984;5.822;2024-02-04T13:45:23;11.10;99.90
24446;DHT22;13347;50.984;5.822;2024-02-04T13:47:50;11.20;99.90
24446;DHT22;13347;50.984;5.822;2024-02-04T13:50:18;11.20;99.90
24446;DHT22;13347;50.984;5.822;2024-02-04T13:52:45;11.20;99.90
24446;DHT22;13347;50.984;5.822;2024-02-04T13:55:12;11.20;99.90
24446;DHT22;13347;50.984;5.822;2024-02-04T13:57:39;11.20;99.90
24446;DHT22;13347;50.984;5.822;2024-02-04T14:00:07;11.20;99.90
24446;DHT22;13347;50.984;5.822;2024-02-04T14:02:34;11.20;99.90
24446;DHT22;13347;50.984;5.822;2024-02-04T14:05:00;11.20;99.90
24446;DHT22;13347;50.984;5.822;2024-02-04T14:07:30;11.20;99.90
24446;DHT22;13347;50.984;5.822;2024-02-04T14:09:57;11.20;99.90
24446;DHT22;13347;50.984;5.822;2024-02-04T14:12:23;11.10;99.90
24446;DHT22;13347;50.984;5.822;2024-02-04T14:14:50;11.10;99.90
24446;DHT22;13347;50.984;5.822;2024-02-04T14:17:18;11.10;99.90
24446;DHT22;13347;50.984;5.822;2024-02-04T14:19:45;11.10;99.90
24446;DHT22;13347;50.984;5.822;2024-02-04T14:22:14;11.10;99.90
24446;DHT22;13347;50.984;5.822;2024-02-04T14:24:43;11.10;99.90
24446;DHT22;13347;50.984;5.822;2024-02-04T14:27:11;11.10;99.90
24446;DHT22;13347;50.984;5.822;2024-02-04T14:29:38;11.10;99.90
24446;DHT22;13347;50.984;5.822;2024-02-04T14:32:05;11.10;99.90
24446;DHT22;13347;50.984;5.822;2024-02-04T14:34:34;11.10;99.90
24446;DHT22;13347;50.984;5.822;2024-02-04T14:37:01;11.00;99.90
24446;DHT22;13347;50.984;5.822;2024-02-04T14:39:28;11.10;99.90
24446;DHT22;13347;50.984;5.822;2024-02-04T14:41:58;11.10;99.90
24446;DHT22;13347;50.984;5.822;2024-02-04T14:44:25;11.10;99.90
24446;DHT22;13347;50.984;5.822;2024-02-04T14:46:52;11.10;99.90
24446;DHT22;13347;50.984;5.822;2024-02-04T14:49:19;11.10;99.90
24446;DHT22;13347;50.984;5.822;2024-02-04T14:51:46;11.10;99.90
24446;DHT22;13347;50.984;5.822;2024-02-04T14:54:13;11.10;99.90
24446;DHT22;13347;50.984;5.822;2024-02-04T14:56:40;11.10;99.90
24446;DHT22;13347;50.984;5.822;2024-02-04T14:59:09;11.10;99.90
24446;DHT22;13347;50.984;5.822;2024-02-04T15:01:36;11.10;99.90
24446;DHT22;13347;50.984;5.822;2024-02-04T15:04:04;11.10;99.90
24446;DHT22;13347;50.984;5.822;2024-02-04T15:06:31;11.10;99.90
24446;DHT22;13347;50.984;5.822;2024-02-04T15:08:58;11.10;99.90
24446;DHT22;13347;50.984;5.822;2024-02-04T15:11:26;11.10;99.90
24446;DHT22;13347;50.984;5.822;2024-02-04T15:13:55;11.10;99.90
24446;DHT22;13347;50.984;5.822;2024-02-04T15:16:24;11.10;99.90
24446;DHT22;13347;50.984;5.822;2024-02-04T15:18:51;11.00;99.90
24446;DHT22;13347;50.984;5.822;2024-02-04T15:21:18;11.00;99.90
24446;DHT22;13347;50.984;5.822;2024-02-04T15:23:45;11.00;99.90
24446;DHT22;13347;50.984;5.822;2024-02-04T15:26:13;11.10;99.90
24446;DHT22;13347;50.984;5.822;2024-02-04T15:28:41;11.10;99.90
24446;DHT22;13347;50.984;5.822;2024-02-04T15:31:08;11.10;99.90
24446;DHT22;13347;50.984;5.822;2024-02-04T15:33:37;11.10;99.90